createdAt,value
2022-08-03T00:03:58.568Z,21.51
2022-08-03T00:09:27.269Z,21.31
2022-08-03T00:15:10.478Z,21.26
2022-08-03T00:20:41.857Z,21.17
2022-08-03T00:26:11.465Z,21.15
2022-08-03T00:31:52.208Z,21.26
2022-08-03T00:37:24.056Z,21.35
2022-08-03T00:43:10.717Z,21.41
2022-08-03T00:48:40.137Z,21.49
2022-08-03T00:54:11.035Z,21.53
2022-08-03T00:59:39.947Z,21.55
2022-08-03T01:05:10.754Z,21.54
2022-08-03T01:10:54.306Z,21.52
2022-08-03T01:16:37.091Z,21.52
2022-08-03T01:22:19.301Z,21.45
2022-08-03T01:28:07.613Z,21.43
2022-08-03T01:33:40.466Z,21.39
2022-08-03T01:39:11.533Z,21.37
2022-08-03T01:44:42.870Z,21.37
2022-08-03T01:50:15.344Z,21.36
2022-08-03T01:55:53.574Z,21.30
2022-08-03T02:01:23.749Z,21.20
2022-08-03T02:07:01.911Z,21.08
2022-08-03T02:12:34.411Z,21.01
2022-08-03T02:18:06.314Z,20.91
2022-08-03T02:23:36.465Z,20.79
2022-08-03T02:29:12.494Z,20.27
2022-08-03T02:34:43.191Z,20.30
2022-08-03T02:40:14.996Z,20.36
2022-08-03T02:45:46.970Z,20.40
2022-08-03T02:51:18.191Z,20.43
2022-08-03T02:56:49.732Z,20.49
2022-08-03T03:02:20.082Z,20.56
2022-08-03T03:07:51.667Z,20.64
2022-08-03T03:13:23.449Z,20.60
2022-08-03T03:18:52.707Z,20.61
2022-08-03T03:24:22.810Z,20.79
2022-08-03T03:29:53.612Z,20.81
2022-08-03T03:35:22.707Z,20.98
2022-08-03T03:40:52.372Z,21.09
2022-08-03T03:46:22.868Z,21.21
2022-08-03T03:51:54.998Z,21.22
2022-08-03T03:57:24.163Z,21.23
2022-08-03T04:02:54.428Z,21.14
2022-08-03T04:08:40.599Z,21.03
2022-08-03T04:14:13.426Z,20.75
2022-08-03T04:19:46.387Z,20.76
2022-08-03T04:25:19.557Z,20.95
2022-08-03T04:30:50.989Z,21.15
2022-08-03T04:36:24.723Z,20.84
2022-08-03T04:42:06.936Z,21.02
2022-08-03T04:47:39.180Z,21.48
2022-08-03T04:53:09.880Z,21.87
2022-08-03T04:58:39.235Z,22.35
2022-08-03T05:04:07.594Z,23.06
2022-08-03T05:09:50.081Z,23.42
2022-08-03T05:15:22.138Z,23.73
2022-08-03T05:20:51.812Z,24.08
2022-08-03T05:26:22.763Z,24.34
2022-08-03T05:31:52.345Z,24.50
2022-08-03T05:37:21.603Z,24.64
2022-08-03T05:42:52.609Z,24.74
2022-08-03T05:48:22.477Z,24.73
2022-08-03T05:53:51.416Z,24.80
2022-08-03T05:59:37.517Z,24.90
2022-08-03T06:05:08.704Z,24.97
2022-08-03T06:10:38.531Z,25.04
2022-08-03T06:16:09.688Z,25.27
2022-08-03T06:21:38.876Z,25.63
2022-08-03T06:27:09.501Z,26.07
2022-08-03T06:32:39.896Z,26.53
2022-08-03T06:38:09.021Z,26.98
2022-08-03T06:44:03.097Z,27.30
2022-08-03T06:49:28.896Z,27.46
2022-08-03T06:54:58.416Z,27.73
2022-08-03T07:00:28.120Z,28.45
2022-08-03T07:05:58.300Z,29.98
2022-08-03T07:11:26.852Z,31.33
2022-08-03T07:16:56.226Z,32.46
2022-08-03T07:22:26.652Z,33.71
2022-08-03T07:27:56.354Z,34.75
2022-08-03T07:33:24.916Z,34.31
2022-08-03T07:38:55.762Z,34.41
2022-08-03T07:44:24.873Z,35.08
2022-08-03T07:49:54.219Z,35.50
2022-08-03T07:55:26.343Z,36.19
2022-08-03T08:00:55.295Z,36.81
2022-08-03T08:06:24.040Z,35.61
2022-08-03T08:11:55.322Z,34.61
2022-08-03T08:17:24.103Z,32.63
2022-08-03T08:22:53.036Z,31.32
2022-08-03T08:28:32.699Z,30.27
2022-08-03T08:34:05.612Z,29.51
2022-08-03T08:39:35.005Z,28.69
2022-08-03T08:45:08.502Z,27.92
2022-08-03T08:50:39.934Z,27.39
2022-08-03T08:56:10.434Z,27.00
2022-08-03T09:01:40.455Z,27.30
2022-08-03T09:07:20.090Z,28.09
2022-08-03T09:12:57.953Z,28.15
2022-08-03T09:18:32.422Z,27.91
2022-08-03T09:24:05.643Z,28.39
2022-08-03T09:29:35.212Z,28.36
2022-08-03T09:35:06.525Z,28.23
2022-08-03T09:40:38.168Z,27.96
2022-08-03T09:46:08.523Z,27.45
2022-08-03T09:52:32.153Z,27.03
2022-08-03T09:57:30.821Z,26.88
2022-08-03T10:03:05.854Z,26.65
2022-08-03T10:08:36.396Z,26.75
2022-08-03T10:14:07.259Z,27.29
2022-08-03T10:19:36.541Z,27.82
2022-08-03T10:25:10.210Z,27.48
2022-08-03T10:30:42.537Z,27.12
2022-08-03T10:36:14.711Z,26.85
2022-08-03T10:41:48.194Z,26.84
2022-08-03T10:47:17.457Z,26.76
2022-08-03T10:52:57.674Z,26.61
2022-08-03T10:58:56.832Z,26.68
2022-08-03T11:04:27.314Z,26.96
2022-08-03T11:09:57.467Z,28.22
2022-08-03T11:15:34.925Z,28.74
2022-08-03T11:21:04.061Z,28.63
2022-08-03T11:26:33.053Z,28.35
2022-08-03T11:32:03.330Z,28.01
2022-08-03T11:37:33.441Z,28.08
2022-08-03T11:43:04.072Z,28.24
2022-08-03T11:48:40.241Z,28.20
2022-08-03T11:54:09.327Z,28.57
2022-08-03T11:59:39.186Z,28.41
2022-08-03T12:05:09.647Z,28.08
2022-08-03T12:10:40.408Z,28.81
2022-08-03T12:16:10.343Z,29.36
2022-08-03T12:21:56.723Z,29.94
2022-08-03T12:27:29.769Z,30.52
2022-08-03T12:32:59.032Z,30.03
2022-08-03T12:38:29.695Z,29.37
2022-08-03T12:44:00.198Z,28.70
2022-08-03T12:49:30.494Z,28.48
2022-08-03T12:55:02.143Z,28.10
2022-08-03T13:00:31.164Z,28.10
2022-08-03T13:06:01.243Z,28.01
2022-08-03T13:11:58.041Z,28.11
2022-08-03T13:17:22.066Z,28.71
2022-08-03T13:22:51.741Z,29.59
2022-08-03T13:28:22.436Z,29.73
2022-08-03T13:33:51.804Z,29.63
2022-08-03T13:39:21.254Z,29.80
2022-08-03T13:45:05.437Z,29.60
2022-08-03T13:50:37.567Z,29.11
2022-08-03T13:56:10.154Z,28.22
2022-08-03T14:01:54.792Z,28.36
2022-08-03T14:07:24.834Z,28.51
2022-08-03T14:12:54.112Z,28.55
2022-08-03T14:18:29.274Z,28.38
2022-08-03T14:24:03.121Z,28.26
2022-08-03T14:29:32.124Z,28.12
2022-08-03T14:35:02.917Z,27.93
2022-08-03T14:40:31.772Z,27.73
2022-08-03T14:46:01.182Z,27.60
2022-08-03T14:51:31.779Z,28.01
2022-08-03T14:57:00.953Z,28.55
2022-08-03T15:02:30.500Z,29.12
2022-08-03T15:08:01.927Z,29.33
2022-08-03T15:13:31.713Z,29.25
2022-08-03T15:19:01.515Z,29.03
2022-08-03T15:24:35.367Z,28.39
2022-08-03T15:30:09.912Z,26.72
2022-08-03T15:35:39.900Z,25.43
2022-08-03T15:41:13.715Z,24.82
2022-08-03T15:46:42.719Z,25.13
2022-08-03T15:52:11.952Z,25.29
2022-08-03T15:58:59.573Z,25.40
2022-08-03T16:03:34.469Z,25.43
2022-08-03T16:09:23.145Z,25.39
2022-08-03T16:14:55.446Z,25.38
2022-08-03T16:20:29.077Z,25.36
2022-08-03T16:26:06.222Z,25.32
2022-08-03T16:31:39.616Z,25.22
2022-08-03T16:37:38.110Z,25.18
2022-08-03T16:43:18.140Z,25.16
2022-08-03T16:48:49.047Z,25.15
2022-08-03T16:54:18.780Z,25.08
2022-08-03T16:59:50.010Z,25.01
2022-08-03T17:05:21.634Z,24.96
2022-08-03T17:10:52.822Z,24.87
2022-08-03T17:16:21.911Z,24.81
2022-08-03T17:22:01.435Z,24.77
2022-08-03T17:28:48.702Z,24.72
2022-08-03T17:33:22.597Z,24.65
2022-08-03T17:38:54.941Z,24.58
2022-08-03T17:44:31.049Z,24.54
2022-08-03T17:50:24.676Z,24.53
2022-08-03T17:56:38.540Z,24.43
2022-08-03T18:02:30.299Z,24.33
2022-08-03T18:08:06.821Z,24.22
2022-08-03T18:13:42.232Z,24.15
2022-08-03T18:20:03.428Z,23.97
2022-08-03T18:25:15.147Z,23.98
2022-08-03T18:30:53.955Z,23.96
2022-08-03T18:36:30.299Z,23.91
2022-08-03T18:42:02.645Z,23.64
2022-08-03T18:47:55.425Z,23.31
2022-08-03T18:54:02.364Z,23.32
2022-08-03T18:59:30.561Z,23.44
2022-08-03T19:05:06.556Z,23.48
2022-08-03T19:10:39.121Z,23.33
2022-08-03T19:16:13.372Z,23.10
2022-08-03T19:21:49.942Z,23.16
2022-08-03T19:33:12.920Z,22.99
2022-08-03T19:38:44.059Z,23.01
2022-08-03T19:44:20.498Z,22.96
2022-08-03T19:50:06.201Z,23.01
2022-08-03T19:55:48.973Z,22.66
2022-08-03T20:01:21.563Z,22.48
2022-08-03T20:06:52.166Z,22.61
2022-08-03T20:18:14.754Z,22.59
2022-08-03T20:30:06.098Z,22.63
2022-08-03T20:35:31.825Z,22.47
2022-08-03T20:41:00.549Z,22.24
2022-08-03T20:46:46.445Z,21.89
2022-08-03T20:52:20.252Z,21.81
2022-08-03T20:57:56.622Z,22.08
2022-08-03T21:03:40.866Z,22.28
2022-08-03T21:09:20.758Z,22.42
2022-08-03T21:13:03.678Z,22.64
2022-08-03T21:13:06.785Z,22.59
2022-08-03T21:13:12.763Z,23.21
2022-08-03T21:15:00.274Z,22.51
2022-08-03T21:20:34.735Z,22.57
2022-08-03T21:26:04.243Z,22.59
2022-08-03T21:31:33.836Z,22.62
2022-08-03T21:37:04.260Z,22.61
2022-08-03T21:42:33.822Z,22.61
2022-08-03T21:48:04.941Z,22.60
2022-08-03T21:54:02.216Z,22.47
2022-08-03T21:59:26.842Z,22.51
2022-08-03T22:04:57.467Z,22.56
2022-08-03T22:10:28.816Z,22.56
2022-08-03T22:15:58.694Z,22.53
2022-08-03T22:21:36.190Z,22.50
2022-08-03T22:27:24.977Z,22.46
2022-08-03T22:32:56.201Z,22.38
2022-08-03T22:38:28.109Z,22.36
2022-08-03T22:43:59.655Z,22.33
2022-08-03T22:49:34.662Z,22.29
2022-08-03T22:55:05.127Z,22.30
2022-08-03T23:00:35.132Z,22.23
2022-08-03T23:06:04.666Z,22.19
2022-08-03T23:11:37.957Z,22.19
2022-08-03T23:17:15.368Z,22.18
2022-08-03T23:22:45.648Z,22.16
2022-08-03T23:28:17.336Z,22.15
2022-08-03T23:34:16.392Z,22.08
2022-08-03T23:39:48.158Z,22.04
2022-08-03T23:45:19.498Z,22.08
2022-08-03T23:50:58.423Z,22.04
2022-08-03T23:56:39.360Z,21.93
